• Join FlightAware (Why Join?)
  • Login
  • US Flag 
03:41AM EDT


 

Airport Tracker/Info


-or-


 

Live Flight TrackerFlight Track Log ✈ ASQ4577 ✈ 09-May-2013 ✈ KCLE - KALB

Flight Track Log - Related Links

Times and Time Zones

All times are in EDT time to prevent confusion due to time zone crossing. See the ASQ4577 flight status page for this flight to view local times or setup timezone preferences in your user account.

Time Position Orientation Groundspeed Altitude Reporting Facility
EDT Latitude Longitude Course Direction KTS MPH feet Rate Location/Type
07:59PM 41.4217 -81.8347 23° Northeast 173 199 1,700  Level Cleveland Center
07:59PM 41.4361 -81.8267 23° Northeast 173 199 2,300 1,560 Climbing Cleveland Center
08:01PM 41.5267 -81.7453 34° Northeast 277 319 4,900 1,920 Climbing Cleveland Center
08:02PM 41.5878 -81.6797 39° Northeast 272 313 7,500 2,400 Climbing Cleveland Center
08:03PM 41.6508 -81.6169 37° Northeast 277 319 9,800 1,920 Climbing Cleveland Center
08:04PM 41.7203 -81.5400 40° Northeast 288 331 11,400 1,620 Climbing Cleveland Center
08:05PM 41.7506 -81.4236 71° East 315 362 13,100 1,560 Climbing Cleveland Center
08:06PM 41.7681 -81.3014 79° East 320 368 14,600 1,440 Climbing Cleveland Center
08:07PM 41.7897 -81.1681 78° East 346 398 16,000 1,440 Climbing Cleveland Center
08:08PM 41.8131 -81.0372 77° East 357 411 17,500 1,620 Climbing Cleveland Center
08:09PM 41.8344 -80.9036 78° East 357 411 19,300 1,800 Climbing Cleveland Center
08:10PM 41.8556 -80.7756 77° East 357 411 21,200 1,800 Climbing Cleveland Center
08:11PM 41.8767 -80.6444 78° East 357 411 23,000 1,560 Climbing Cleveland Center
08:12PM 41.8953 -80.5275 78° East 351 404 24,400 1,380 Climbing Cleveland Center
08:13PM 41.9139 -80.3989 79° East 356 410 25,800 1,200 Climbing Cleveland Center
08:14PM 41.9367 -80.2650 77° East 356 410 26,900 1,080 Climbing Cleveland Center
08:15PM 41.9569 -80.1253 79° East 361 415 28,000 1,080 Climbing Cleveland Center
08:16PM 41.9814 -79.9742 78° East 373 429 29,100 900 Climbing Cleveland Center
08:17PM 42.0033 -79.8344 78° East 373 429 29,800 600 Climbing Cleveland Center
08:18PM 42.0253 -79.6858 79° East 378 435 30,300 540 Climbing Cleveland Center
08:19PM 42.0469 -79.5292 79° East 403 464 30,900 300 Climbing Cleveland Center
08:20PM 42.0703 -79.3692 79° East 418 481 31,000  Climbing Cleveland Center
08:21PM 42.0956 -79.2064 78° East 430 495 31,000  Level Cleveland Center
08:22PM 42.1206 -79.0436 78° East 435 501 31,000  Level Cleveland Center
08:23PM 42.1433 -78.8750 80° East 440 506 31,000  Level Cleveland Center
08:24PM 42.1678 -78.7089 79° East 450 518 31,000  Level Cleveland Center
08:25PM 42.1903 -78.5569 79° East 450 518 31,000  Level Cleveland Center
08:26PM 42.2122 -78.3908 80° East 450 518 31,000  Level Cleveland Center
08:27PM 42.2358 -78.2217 79° East 450 518 31,000  Level Cleveland Center
08:28PM 42.2594 -78.0553 79° East 450 518 31,000  Level Cleveland Center
08:29PM 42.2806 -77.8861 80° East 450 518 31,000  Level Cleveland Center
08:30PM 42.3036 -77.7167 80° East 450 518 31,000  Level Cleveland Center
08:31PM 42.3264 -77.5469 80° East 450 518 31,000 -180 Level Cleveland Center
08:34PM 42.3814 -77.1094 80° East 469 540 30,500 -420 Descending Boston Center
08:35PM 42.4022 -76.9592 79° East 459 528 29,600 -780 Descending Boston Center
08:36PM 42.4211 -76.7917 81° East 459 528 29,000 -300 Descending Boston Center
08:37PM 42.4419 -76.6242 80° East 454 522 29,000  Level Boston Center
08:38PM 42.4628 -76.4567 80° East 454 522 29,000  Level Boston Center
08:39PM 42.4831 -76.2892 81° East 454 522 29,000 -540 Level Boston Center
08:40PM 42.5061 -76.0989 81° East 454 522 28,000 -540 Descending Boston Center
08:41PM 42.5239 -75.9308 82° East 454 522 28,000  Level Boston Center
08:42PM 42.5456 -75.7631 80° East 454 522 28,000 -240 Level Boston Center
08:43PM 42.5631 -75.5919 82° East 459 528 27,600 -720 Descending Boston Center
08:44PM 42.6006 -75.4358 72° East 439 505 26,600 -1,020 Descending Boston Center
08:45PM 42.6564 -75.2972 61° Northeast 433 498 25,600 -1,860 Descending Boston Center
08:46PM 42.7117 -75.1642 60° Northeast 421 484 22,900 -3,000 Descending Boston Center
08:47PM 42.7647 -75.0308 62° Northeast 399 459 19,600 -3,300 Descending Boston Center
08:48PM 42.8175 -74.9056 60° Northeast 387 445 16,300 -3,000 Descending Boston Center
08:49PM 42.8164 -74.7667 91° East 363 418 13,700 -2,460 Descending Boston Center
08:49PM 42.8078 -74.6817 98° East 364 419 12,400 -1,920 Descending Boston Center
08:50PM 42.8025 -74.6306 98° East 368 423 11,800 -1,560 Descending Boston Center
08:50PM 42.7994 -74.5625 93° East 367 422 11,000 -840 Descending Boston Center
08:51PM 42.7925 -74.4942 98° East 368 423 11,000  Level Boston Center
08:51PM 42.7892 -74.4433 95° East 352 405 11,000  Level Boston Center
08:52PM 42.7842 -74.3639 95° East 355 409 11,000  Level Boston Center
08:52PM 42.7811 -74.3100 94° East 349 402 11,000  Level Boston Center
08:53PM 42.7761 -74.2306 95° East 355 409 11,000 -720 Level Boston Center
08:53PM 42.7831 -74.1800 79° East 309 356 10,300 -2,100 Descending Boston Center
08:54PM 42.8025 -74.1353 59° Northeast 286 329 8,900 -3,000 Descending Boston Center
08:54PM 42.8281 -74.0992 46° Northeast 256 295 7,300 -3,120 Descending Boston Center
08:55PM 42.8536 -74.0628 46° Northeast 262 302 5,800 -2,760 Descending Boston Center
08:55PM 42.8647 -74.0208 70° East 258 297 4,500 -1,920 Descending Boston Center
08:56PM 42.8717 -73.9700 79° East 250 288 3,900 -1,140 Descending Boston Center
08:56PM 42.8783 -73.9275 78° East 234 269 3,400 -1,140 Descending Boston Center
08:57PM 42.8831 -73.8822 82° East 239 275 2,800 -1,140 Descending Boston Center
08:57PM 42.8878 -73.8400 81° East 225 259 2,300 -720 Descending Boston Center
08:58PM 42.8692 -73.8197 141° Southeast 205 236 2,100 -420 Descending Boston Center
08:58PM 42.8403 -73.8133 171° South 181 208 1,900 -240 Descending Boston Center
08:59PM 42.8386 -73.7736 93° East 205 236 1,900 -840 Level Boston Center
08:59PM 42.7922 -73.8067 208° Southwest 131 151 1,000 -1,500 Descending Boston Center